createdAt,value
2019-05-02T00:02:11.176Z,12.70
2019-05-02T00:04:37.880Z,13.00
2019-05-02T00:07:08.766Z,13.00
2019-05-02T00:09:36.438Z,13.00
2019-05-02T00:12:05.276Z,13.00
2019-05-02T00:14:32.771Z,13.00
2019-05-02T00:16:59.448Z,13.10
2019-05-02T00:19:26.105Z,12.40
2019-05-02T00:21:52.723Z,12.40
2019-05-02T00:24:19.608Z,12.70
2019-05-02T00:26:46.353Z,12.50
2019-05-02T00:29:13.032Z,12.70
2019-05-02T00:31:41.873Z,12.30
2019-05-02T00:34:08.232Z,12.40
2019-05-02T00:36:35.002Z,12.10
2019-05-02T00:39:01.653Z,12.50
2019-05-02T00:41:28.313Z,12.50
2019-05-02T00:43:54.968Z,12.50
2019-05-02T00:46:21.715Z,12.10
2019-05-02T00:48:54.308Z,12.20
2019-05-02T00:51:21.994Z,12.40
2019-05-02T00:53:49.494Z,12.20
2019-05-02T00:56:15.647Z,12.10
2019-05-02T00:58:42.387Z,12.10
2019-05-02T01:01:30.885Z,12.10
2019-05-02T01:06:49.265Z,12.30
2019-05-02T01:09:15.676Z,12.20
2019-05-02T01:11:42.358Z,12.20
2019-05-02T01:14:08.951Z,12.40
2019-05-02T01:16:35.615Z,12.20
2019-05-02T01:19:02.340Z,12.20
2019-05-02T01:21:29.023Z,12.30
2019-05-02T01:23:58.857Z,12.50
2019-05-02T01:26:29.280Z,11.90
2019-05-02T01:29:05.175Z,11.80
2019-05-02T01:31:33.737Z,11.80
2019-05-02T01:34:13.001Z,11.60
2019-05-02T01:36:57.068Z,11.20
2019-05-02T01:39:23.822Z,11.50
2019-05-02T01:41:50.471Z,11.50
2019-05-02T01:44:17.140Z,12.00
2019-05-02T01:46:43.772Z,12.00
2019-05-02T01:49:10.432Z,11.90
2019-05-02T01:51:41.782Z,11.80
2019-05-02T01:54:09.941Z,11.30
2019-05-02T01:56:34.925Z,11.50
2019-05-02T01:59:01.692Z,11.50
2019-05-02T02:01:28.483Z,11.20
2019-05-02T02:03:55.479Z,11.00
2019-05-02T02:06:22.199Z,11.10
2019-05-02T02:08:48.869Z,11.10
2019-05-02T02:11:15.558Z,11.40
2019-05-02T02:13:42.440Z,11.20
2019-05-02T02:16:09.069Z,11.40
2019-05-02T02:18:37.625Z,11.00
2019-05-02T02:21:08.854Z,11.50
2019-05-02T02:23:44.952Z,10.60
2019-05-02T02:26:13.913Z,11.10
2019-05-02T02:28:40.559Z,11.20
2019-05-02T02:31:07.985Z,11.50
2019-05-02T02:33:41.104Z,11.50
2019-05-02T02:36:03.557Z,11.60
2019-05-02T02:38:33.519Z,11.50
2019-05-02T02:40:58.913Z,11.50
2019-05-02T02:43:34.091Z,11.30
2019-05-02T02:46:12.773Z,11.10
2019-05-02T02:48:40.664Z,10.70
2019-05-02T02:51:08.124Z,10.60
2019-05-02T02:53:34.780Z,10.50
2019-05-02T02:56:04.511Z,10.80
2019-05-02T02:58:44.558Z,10.70
2019-05-02T03:01:03.389Z,11.10
2019-05-02T03:03:34.528Z,11.10
2019-05-02T03:06:05.238Z,11.20
2019-05-02T03:08:27.148Z,11.30
2019-05-02T03:10:53.994Z,11.50
2019-05-02T03:13:25.829Z,11.10
2019-05-02T03:16:11.814Z,11.30
2019-05-02T03:18:40.578Z,11.10
2019-05-02T03:21:07.045Z,11.00
2019-05-02T03:23:33.704Z,11.00
2019-05-02T03:26:00.342Z,11.10
2019-05-02T03:28:27.168Z,11.00
2019-05-02T03:30:54.346Z,11.10
2019-05-02T03:33:21.009Z,11.10
2019-05-02T03:35:48.963Z,10.90
2019-05-02T03:38:16.310Z,11.30
2019-05-02T03:40:43.300Z,10.90
2019-05-02T03:43:09.925Z,11.10
2019-05-02T03:45:40.287Z,10.90
2019-05-02T03:48:05.728Z,11.30
2019-05-02T03:50:35.253Z,10.90
2019-05-02T03:53:01.356Z,11.20
2019-05-02T03:55:30.883Z,10.90
2019-05-02T03:57:56.501Z,10.80
2019-05-02T04:00:24.233Z,10.90
2019-05-02T04:02:59.042Z,10.50
2019-05-02T04:05:20.074Z,11.00
2019-05-02T04:07:46.721Z,11.30
2019-05-02T04:10:25.877Z,10.90
2019-05-02T04:12:58.084Z,10.80
2019-05-02T04:15:21.350Z,11.00
2019-05-02T04:17:47.989Z,10.80
2019-05-02T04:20:14.823Z,10.70
2019-05-02T04:22:48.578Z,11.20
2019-05-02T04:25:10.890Z,11.30
2019-05-02T04:27:37.522Z,11.20
2019-05-02T04:30:11.453Z,11.30
2019-05-02T04:32:33.817Z,11.20
2019-05-02T04:35:00.557Z,11.50
2019-05-02T04:37:27.247Z,11.20
2019-05-02T04:39:58.169Z,11.50
2019-05-02T04:42:23.363Z,11.70
2019-05-02T04:45:12.175Z,11.40
2019-05-02T04:47:21.969Z,11.30
2019-05-02T04:49:51.516Z,11.20
2019-05-02T04:52:18.282Z,11.40
2019-05-02T04:54:44.144Z,11.60
2019-05-02T04:57:10.838Z,11.30
2019-05-02T04:59:39.491Z,11.40
2019-05-02T05:02:08.698Z,11.60
2019-05-02T05:04:42.413Z,11.50
2019-05-02T05:07:04.267Z,11.30
2019-05-02T05:09:30.924Z,11.30
2019-05-02T05:11:58.960Z,11.70
2019-05-02T05:14:31.485Z,11.70
2019-05-02T05:16:56.125Z,11.80
2019-05-02T05:19:27.519Z,11.10
2019-05-02T05:21:56.100Z,11.30
2019-05-02T05:24:24.878Z,11.20
2019-05-02T05:26:52.083Z,11.40
2019-05-02T05:29:23.109Z,11.50
2019-05-02T05:31:48.244Z,11.30
2019-05-02T05:34:16.940Z,11.50
2019-05-02T05:36:43.613Z,11.60
2019-05-02T05:39:11.704Z,11.60
2019-05-02T05:41:42.664Z,11.10
2019-05-02T05:44:07.838Z,11.70
2019-05-02T05:46:40.990Z,11.90
2019-05-02T05:49:03.536Z,12.00
2019-05-02T05:51:30.291Z,11.80
2019-05-02T05:54:02.758Z,11.80
2019-05-02T05:56:27.363Z,12.10
2019-05-02T05:58:54.053Z,11.80
2019-05-02T06:01:25.819Z,11.90
2019-05-02T06:03:49.249Z,11.70
2019-05-02T06:06:22.441Z,11.80
2019-05-02T06:08:44.393Z,12.00
2019-05-02T06:11:14.803Z,12.20
2019-05-02T06:13:43.009Z,12.40
2019-05-02T06:16:10.482Z,12.50
2019-05-02T06:18:41.855Z,12.80
2019-05-02T06:21:08.843Z,12.70
2019-05-02T06:23:36.360Z,12.20
2019-05-02T06:26:07.665Z,12.10
2019-05-02T06:28:31.029Z,12.10
2019-05-02T06:31:02.048Z,12.10
2019-05-02T06:33:30.416Z,12.30
2019-05-02T06:36:14.353Z,12.30
2019-05-02T06:38:41.041Z,12.70
2019-05-02T06:41:07.801Z,12.30
2019-05-02T06:43:34.556Z,12.40
2019-05-02T06:46:01.360Z,12.40
2019-05-02T06:48:28.085Z,12.40
2019-05-02T06:50:56.489Z,12.70
2019-05-02T06:53:24.372Z,12.60
2019-05-02T06:55:51.123Z,12.70
2019-05-02T06:58:17.904Z,12.50
2019-05-02T07:00:56.702Z,12.20
2019-05-02T07:03:13.269Z,12.60
2019-05-02T07:05:40.228Z,12.90
2019-05-02T07:08:12.095Z,12.90
2019-05-02T07:10:44.418Z,12.40
2019-05-02T07:13:10.669Z,12.50
2019-05-02T07:15:41.066Z,12.90
2019-05-02T07:18:10.569Z,12.90
2019-05-02T07:20:40.481Z,13.20
2019-05-02T07:23:10.562Z,13.10
2019-05-02T07:25:39.138Z,13.10
2019-05-02T07:28:04.636Z,12.70
2019-05-02T07:30:35.078Z,13.10
2019-05-02T07:33:02.316Z,13.50
2019-05-02T07:35:29.205Z,13.20
2019-05-02T07:37:55.932Z,13.70
2019-05-02T07:40:22.695Z,13.70
2019-05-02T07:42:49.521Z,13.40
2019-05-02T07:45:16.635Z,13.50
2019-05-02T07:47:43.330Z,13.80
2019-05-02T07:50:11.941Z,14.30
2019-05-02T07:52:41.126Z,14.30
2019-05-02T07:55:10.092Z,13.90
2019-05-02T07:57:36.092Z,13.60
2019-05-02T08:00:08.996Z,13.30
2019-05-02T08:02:35.698Z,13.80
2019-05-02T08:05:02.829Z,14.40
2019-05-02T08:07:34.249Z,14.30
2019-05-02T08:09:57.917Z,14.60
2019-05-02T08:12:24.656Z,14.90
2019-05-02T08:14:51.228Z,14.80
2019-05-02T08:17:19.348Z,14.80
2019-05-02T08:19:46.134Z,14.80
2019-05-02T08:22:14.563Z,14.70
2019-05-02T08:24:41.240Z,14.40
2019-05-02T08:27:15.621Z,15.00
2019-05-02T08:29:42.381Z,14.50
2019-05-02T08:32:09.306Z,14.10
2019-05-02T08:34:35.904Z,14.20
2019-05-02T08:37:03.679Z,14.10
2019-05-02T08:39:33.768Z,14.50
2019-05-02T08:41:59.560Z,15.00
2019-05-02T08:44:27.538Z,15.10
2019-05-02T08:46:54.205Z,14.80
2019-05-02T08:49:20.828Z,14.50
2019-05-02T08:51:49.253Z,15.10
2019-05-02T08:54:15.876Z,15.30
2019-05-02T08:56:42.519Z,15.10
2019-05-02T08:59:09.240Z,15.70
2019-05-02T09:01:35.937Z,15.40
2019-05-02T09:04:03.201Z,14.90
2019-05-02T09:06:29.839Z,15.30
2019-05-02T09:08:56.496Z,15.40
2019-05-02T09:11:23.137Z,15.40
2019-05-02T09:13:49.808Z,15.60
2019-05-02T09:16:16.436Z,15.20
2019-05-02T09:18:50.638Z,15.10
2019-05-02T09:21:12.562Z,16.20
2019-05-02T09:23:41.184Z,15.90
2019-05-02T09:26:07.716Z,15.90
2019-05-02T09:28:34.346Z,16.10
2019-05-02T09:31:02.868Z,15.80
2019-05-02T09:33:32.079Z,15.20
2019-05-02T09:35:57.959Z,15.00
2019-05-02T09:38:24.725Z,15.80
2019-05-02T09:40:54.605Z,16.20
2019-05-02T09:43:22.837Z,16.20
2019-05-02T09:45:51.850Z,15.90
2019-05-02T09:48:22.743Z,15.90
2019-05-02T09:50:46.808Z,15.90
2019-05-02T09:53:20.635Z,15.80
2019-05-02T09:55:49.563Z,15.80
2019-05-02T09:58:16.203Z,16.00
2019-05-02T10:00:57.881Z,16.10
2019-05-02T10:03:24.991Z,15.90
2019-05-02T10:05:52.350Z,15.90
2019-05-02T10:08:19.077Z,16.60
2019-05-02T10:10:46.237Z,16.10
2019-05-02T10:13:13.022Z,15.70
2019-05-02T10:15:41.948Z,15.80
2019-05-02T10:18:11.374Z,16.60
2019-05-02T10:20:36.824Z,16.50
2019-05-02T10:23:03.909Z,16.00
2019-05-02T10:25:38.338Z,16.00
2019-05-02T10:27:59.009Z,15.90
2019-05-02T10:30:27.812Z,15.30
2019-05-02T10:32:57.203Z,15.90
2019-05-02T10:35:40.606Z,16.30
2019-05-02T10:38:09.564Z,16.00
2019-05-02T10:40:34.315Z,15.80
2019-05-02T10:43:02.769Z,15.70
2019-05-02T10:45:31.722Z,16.30
2019-05-02T10:47:58.276Z,16.50
2019-05-02T10:50:29.797Z,16.40
2019-05-02T10:52:56.424Z,16.30
2019-05-02T10:55:24.265Z,16.00
2019-05-02T10:57:52.732Z,15.60
2019-05-02T11:00:23.135Z,16.10
2019-05-02T11:03:02.547Z,16.60
2019-05-02T11:05:31.836Z,16.80
2019-05-02T11:08:04.828Z,16.90
2019-05-02T11:10:27.151Z,17.10
2019-05-02T11:13:12.486Z,16.30
2019-05-02T11:15:57.898Z,16.60
2019-05-02T11:18:39.353Z,16.60
2019-05-02T11:20:59.075Z,16.60
2019-05-02T11:23:25.409Z,15.90
2019-05-02T11:25:52.642Z,16.40
2019-05-02T11:28:19.476Z,16.60
2019-05-02T11:30:46.308Z,17.00
2019-05-02T11:33:13.506Z,16.90
2019-05-02T11:35:41.828Z,17.30
2019-05-02T11:38:09.183Z,17.50
2019-05-02T11:40:36.189Z,17.20
2019-05-02T11:43:06.809Z,17.50
2019-05-02T11:45:32.360Z,17.50
2019-05-02T11:48:01.784Z,17.10
2019-05-02T11:50:31.956Z,17.50
2019-05-02T11:52:56.240Z,16.60
2019-05-02T11:55:24.731Z,17.70
2019-05-02T11:57:52.325Z,18.10
2019-05-02T12:00:19.188Z,18.30
2019-05-02T12:02:49.073Z,18.50
2019-05-02T12:05:22.164Z,18.20
2019-05-02T12:07:48.959Z,18.10
2019-05-02T12:10:15.899Z,18.70
2019-05-02T12:12:42.990Z,18.40
2019-05-02T12:15:11.984Z,18.10
2019-05-02T12:17:38.804Z,18.50
2019-05-02T12:20:05.470Z,18.70
2019-05-02T12:22:32.541Z,18.50
2019-05-02T12:24:59.452Z,18.50
2019-05-02T12:27:26.091Z,19.20
2019-05-02T12:29:57.777Z,19.00
2019-05-02T12:32:22.449Z,18.40
2019-05-02T12:34:49.356Z,18.40
2019-05-02T12:37:16.012Z,18.50
2019-05-02T12:39:42.798Z,18.70
2019-05-02T12:42:09.668Z,18.90
2019-05-02T12:44:36.488Z,18.50
2019-05-02T12:47:03.895Z,18.20
2019-05-02T12:49:32.329Z,17.70
2019-05-02T12:52:18.778Z,18.90
2019-05-02T12:54:45.474Z,18.90
2019-05-02T12:57:12.577Z,18.90
2019-05-02T12:59:39.264Z,19.50
2019-05-02T13:02:07.985Z,19.40
2019-05-02T13:04:34.656Z,18.70
2019-05-02T13:07:02.167Z,19.50
2019-05-02T13:09:29.044Z,20.50
2019-05-02T13:12:00.097Z,20.30
2019-05-02T13:14:28.694Z,19.80
2019-05-02T13:17:01.612Z,19.50
2019-05-02T13:19:37.214Z,20.00
2019-05-02T13:22:13.074Z,19.40
2019-05-02T13:24:42.349Z,19.30
2019-05-02T13:27:12.605Z,19.50
2019-05-02T13:29:39.421Z,18.90
2019-05-02T13:32:18.687Z,19.10
2019-05-02T13:35:02.475Z,19.30
2019-05-02T13:37:29.360Z,19.40
2019-05-02T13:40:06.966Z,19.00
2019-05-02T13:42:33.803Z,18.80
2019-05-02T13:45:14.695Z,18.90
2019-05-02T13:47:42.635Z,19.10
2019-05-02T13:50:09.837Z,18.60
2019-05-02T13:52:36.488Z,18.60
2019-05-02T13:55:09.335Z,19.30
2019-05-02T13:57:41.789Z,19.50
2019-05-02T14:00:06.040Z,19.10
2019-05-02T14:02:38.539Z,19.20
2019-05-02T14:05:12.637Z,19.40
2019-05-02T14:07:42.764Z,19.10
2019-05-02T14:10:14.937Z,19.30
2019-05-02T14:12:58.848Z,19.40
2019-05-02T14:15:27.389Z,19.00
2019-05-02T14:17:54.033Z,19.50
2019-05-02T14:20:22.427Z,19.50
2019-05-02T14:22:49.137Z,19.20
2019-05-02T14:25:15.987Z,19.20
2019-05-02T14:27:46.858Z,20.00
2019-05-02T14:30:12.169Z,19.90
2019-05-02T14:32:39.074Z,20.00
2019-05-02T14:35:11.802Z,20.20
2019-05-02T14:37:38.651Z,20.10
2019-05-02T14:40:08.280Z,19.70
2019-05-02T14:42:34.984Z,19.10
2019-05-02T14:45:11.960Z,19.30
2019-05-02T14:47:32.520Z,19.20
2019-05-02T14:50:02.267Z,19.00
2019-05-02T14:52:27.219Z,18.90
2019-05-02T14:54:55.662Z,19.10
2019-05-02T14:57:27.117Z,19.30
2019-05-02T14:59:59.172Z,19.70
2019-05-02T15:02:22.954Z,19.40
2019-05-02T15:04:49.821Z,19.20
2019-05-02T15:07:17.705Z,19.00
2019-05-02T15:09:44.866Z,18.90
2019-05-02T15:12:16.006Z,19.20
2019-05-02T15:14:40.368Z,19.20
2019-05-02T15:17:07.405Z,19.60
2019-05-02T15:19:34.156Z,19.90
2019-05-02T15:22:02.158Z,19.60
2019-05-02T15:24:33.459Z,19.10
2019-05-02T15:26:57.518Z,19.20
2019-05-02T15:29:27.027Z,18.90
2019-05-02T15:31:58.049Z,18.80
2019-05-02T15:34:27.711Z,18.70
2019-05-02T15:36:54.439Z,18.30
2019-05-02T15:41:49.572Z,18.60
2019-05-02T15:44:18.887Z,18.30
2019-05-02T15:46:44.987Z,18.20
2019-05-02T15:49:12.307Z,18.30
2019-05-02T15:51:45.019Z,18.10
2019-05-02T15:54:12.384Z,18.30
2019-05-02T15:57:00.058Z,18.20
2019-05-02T15:59:32.402Z,18.20
2019-05-02T16:02:02.924Z,18.20
2019-05-02T16:04:34.044Z,18.20
2019-05-02T16:07:06.883Z,17.90
2019-05-02T16:09:29.290Z,17.60
2019-05-02T16:11:57.095Z,17.90
2019-05-02T16:14:27.072Z,18.30
2019-05-02T16:16:52.319Z,17.90
2019-05-02T16:19:27.124Z,17.70
2019-05-02T16:21:49.437Z,17.60
2019-05-02T16:24:19.809Z,17.70
2019-05-02T16:26:48.940Z,17.70
2019-05-02T16:29:23.311Z,17.50
2019-05-02T16:31:49.408Z,17.50
2019-05-02T16:34:16.264Z,17.90
2019-05-02T16:36:43.065Z,18.00
2019-05-02T16:39:13.248Z,17.70
2019-05-02T16:41:41.378Z,17.50
2019-05-02T16:44:08.251Z,17.50
2019-05-02T16:46:34.904Z,17.20
2019-05-02T16:49:01.572Z,17.30
2019-05-02T16:51:32.371Z,17.20
2019-05-02T16:54:01.644Z,17.30
2019-05-02T16:56:25.355Z,17.20
2019-05-02T16:58:52.256Z,17.20
2019-05-02T17:01:26.600Z,17.20
2019-05-02T17:03:47.417Z,17.20
2019-05-02T17:06:17.024Z,17.00
2019-05-02T17:08:44.480Z,16.90
2019-05-02T17:11:15.636Z,17.10
2019-05-02T17:13:41.838Z,17.00
2019-05-02T17:16:15.162Z,17.00
2019-05-02T17:18:37.023Z,17.00
2019-05-02T17:21:03.755Z,16.90
2019-05-02T17:23:30.383Z,16.80
2019-05-02T17:25:57.069Z,16.80
2019-05-02T17:28:23.711Z,16.90
2019-05-02T17:30:52.304Z,16.90
2019-05-02T17:33:18.925Z,16.90
2019-05-02T17:35:49.325Z,17.00
2019-05-02T17:38:14.085Z,16.80
2019-05-02T17:40:42.658Z,16.70
2019-05-02T17:43:09.268Z,16.50
2019-05-02T17:45:38.620Z,16.60
2019-05-02T17:48:09.891Z,16.50
2019-05-02T17:50:56.002Z,16.70
2019-05-02T17:53:19.812Z,16.60
2019-05-02T17:55:46.500Z,16.80
2019-05-02T17:58:16.398Z,16.60
2019-05-02T18:00:47.470Z,16.50
2019-05-02T18:03:15.486Z,15.50
2019-05-02T18:05:42.336Z,15.40
2019-05-02T18:08:10.867Z,15.00
2019-05-02T18:10:37.743Z,14.90
2019-05-02T18:13:04.610Z,14.70
2019-05-02T18:15:34.928Z,14.50
2019-05-02T18:18:06.473Z,14.60
2019-05-02T18:20:28.260Z,14.20
2019-05-02T18:22:54.949Z,14.10
2019-05-02T18:25:25.156Z,14.20
2019-05-02T18:27:51.791Z,14.10
2019-05-02T18:30:24.894Z,14.20
2019-05-02T18:32:47.920Z,14.20
2019-05-02T18:35:14.574Z,14.30
2019-05-02T18:37:42.771Z,14.10
2019-05-02T18:40:11.903Z,14.00
2019-05-02T18:42:38.594Z,14.10
2019-05-02T18:45:08.860Z,13.90
2019-05-02T18:47:35.511Z,14.00
2019-05-02T18:50:06.161Z,13.90
2019-05-02T18:52:38.074Z,13.90
2019-05-02T18:55:01.634Z,13.90
2019-05-02T18:57:29.665Z,14.00
2019-05-02T18:59:58.173Z,14.00
2019-05-02T19:02:26.309Z,14.10
2019-05-02T19:04:53.418Z,14.10
2019-05-02T19:07:30.862Z,13.90
2019-05-02T19:09:51.412Z,14.20
2019-05-02T19:12:22.432Z,14.20
2019-05-02T19:14:45.548Z,14.20
2019-05-02T19:17:12.350Z,14.00
2019-05-02T19:19:39.070Z,14.00
2019-05-02T19:22:07.338Z,13.80
2019-05-02T19:24:36.458Z,13.70
2019-05-02T19:27:02.816Z,14.00
2019-05-02T19:29:31.753Z,14.00
2019-05-02T19:31:58.527Z,13.90
2019-05-02T19:34:26.979Z,13.90
2019-05-02T19:36:57.897Z,13.80
2019-05-02T19:39:24.213Z,13.80
2019-05-02T19:41:52.024Z,13.50
2019-05-02T19:44:21.206Z,13.90
2019-05-02T19:46:47.610Z,13.60
2019-05-02T19:49:16.315Z,13.40
2019-05-02T19:51:43.633Z,13.50
2019-05-02T19:54:12.473Z,13.30
2019-05-02T19:56:43.951Z,13.30
2019-05-02T19:59:07.945Z,13.50
2019-05-02T20:01:35.403Z,13.50
2019-05-02T20:04:06.074Z,13.40
2019-05-02T20:06:32.549Z,13.40
2019-05-02T20:09:04.721Z,13.00
2019-05-02T20:11:32.863Z,12.90
2019-05-02T20:14:00.501Z,13.20
2019-05-02T20:16:31.914Z,13.30
2019-05-02T20:18:58.736Z,13.30
2019-05-02T20:21:33.593Z,13.30
2019-05-02T20:24:03.516Z,13.10
2019-05-02T20:26:29.323Z,13.10
2019-05-02T20:28:55.986Z,13.00
2019-05-02T20:31:23.008Z,12.90
2019-05-02T20:33:51.898Z,12.90
2019-05-02T20:36:18.228Z,12.90
2019-05-02T20:38:44.897Z,12.90
2019-05-02T20:41:12.723Z,13.10
2019-05-02T20:43:42.803Z,12.60
2019-05-02T20:46:08.335Z,12.50
2019-05-02T20:48:35.015Z,12.70
2019-05-02T20:51:02.670Z,12.70
2019-05-02T20:53:33.415Z,12.80
2019-05-02T20:55:58.279Z,12.60
2019-05-02T20:58:24.957Z,12.40
2019-05-02T21:01:04.767Z,12.80
2019-05-02T21:03:20.604Z,12.70
2019-05-02T21:06:04.361Z,12.40
2019-05-02T21:08:35.004Z,12.60
2019-05-02T21:11:04.644Z,12.70
2019-05-02T21:13:32.776Z,12.40
2019-05-02T21:16:01.685Z,12.40
2019-05-02T21:18:28.461Z,12.10
2019-05-02T21:20:55.445Z,12.10
2019-05-02T21:23:22.063Z,12.20
2019-05-02T21:25:49.276Z,12.50
2019-05-02T21:28:16.426Z,12.60
2019-05-02T21:30:43.394Z,12.60
2019-05-02T21:33:37.256Z,12.30
2019-05-02T21:36:04.887Z,12.30
2019-05-02T21:38:31.983Z,12.60
2019-05-02T21:40:58.752Z,12.80
2019-05-02T21:43:25.474Z,12.70
2019-05-02T21:45:52.092Z,13.00
2019-05-02T21:48:19.168Z,12.80
2019-05-02T21:51:04.454Z,12.70
2019-05-02T21:53:33.012Z,12.80
2019-05-02T21:56:04.737Z,12.30
2019-05-02T21:58:32.325Z,12.60
2019-05-02T22:01:03.005Z,12.40
2019-05-02T22:03:29.669Z,12.40
2019-05-02T22:05:56.528Z,12.30
2019-05-02T22:08:23.188Z,12.60
2019-05-02T22:10:52.002Z,12.40
2019-05-02T22:13:18.612Z,12.60
2019-05-02T22:15:45.276Z,12.50
2019-05-02T22:18:13.610Z,12.80
2019-05-02T22:20:40.388Z,12.80
2019-05-02T22:23:07.017Z,12.50
2019-05-02T22:25:34.009Z,12.40
2019-05-02T22:28:01.960Z,12.60
2019-05-02T22:30:28.811Z,12.50
2019-05-02T22:32:55.451Z,12.30
2019-05-02T22:35:22.097Z,12.20
2019-05-02T22:37:50.657Z,12.50
2019-05-02T22:40:17.689Z,12.60
2019-05-02T22:42:44.877Z,12.50
2019-05-02T22:45:12.536Z,12.30
2019-05-02T22:47:39.376Z,12.10
2019-05-02T22:50:06.525Z,12.10
2019-05-02T22:52:33.155Z,12.40
2019-05-02T22:54:59.847Z,12.50
2019-05-02T22:57:26.539Z,12.50
2019-05-02T22:59:53.382Z,12.50
2019-05-02T23:02:21.817Z,12.20
2019-05-02T23:04:48.488Z,12.10
2019-05-02T23:07:15.137Z,12.30
2019-05-02T23:09:43.613Z,12.30
2019-05-02T23:12:10.787Z,12.40
2019-05-02T23:14:37.468Z,12.30
2019-05-02T23:17:04.112Z,12.40
2019-05-02T23:19:31.735Z,12.30
2019-05-02T23:21:58.552Z,12.30
2019-05-02T23:24:39.158Z,12.40
2019-05-02T23:27:18.234Z,12.10
2019-05-02T23:29:44.930Z,12.50
2019-05-02T23:32:11.647Z,12.40
2019-05-02T23:34:38.296Z,12.30
2019-05-02T23:37:05.080Z,12.00
2019-05-02T23:39:32.303Z,12.00
2019-05-02T23:41:59.090Z,11.90
2019-05-02T23:44:25.727Z,11.80
2019-05-02T23:46:52.400Z,11.50
2019-05-02T23:49:19.033Z,11.90
2019-05-02T23:51:45.700Z,12.00
2019-05-02T23:54:12.940Z,11.90
2019-05-02T23:56:40.042Z,11.80
2019-05-02T23:59:06.651Z,11.50
